createdAt,value
2023-05-09T00:00:38.253Z,100846.22
2023-05-09T00:03:06.050Z,100851.69
2023-05-09T00:05:33.837Z,100856.06
2023-05-09T00:08:01.546Z,100860.59
2023-05-09T00:10:29.228Z,100864.09
2023-05-09T00:12:57.371Z,100858.75
2023-05-09T00:15:26.110Z,100859.59
2023-05-09T00:17:55.114Z,100863.69
2023-05-09T00:20:22.773Z,100864.13
2023-05-09T00:22:50.445Z,100864.69
2023-05-09T00:25:18.041Z,100859.16
2023-05-09T00:27:45.873Z,100853.81
2023-05-09T00:30:13.580Z,100852.97
2023-05-09T00:32:41.772Z,100851.41
2023-05-09T00:35:10.360Z,100852.69
2023-05-09T00:37:38.055Z,100848.59
2023-05-09T00:40:07.092Z,100845.38
2023-05-09T00:42:35.532Z,100844.91
2023-05-09T00:45:03.396Z,100845.47
2023-05-09T00:47:31.444Z,100851.09
2023-05-09T00:49:59.735Z,100848.31
2023-05-09T00:52:27.702Z,100850.56
2023-05-09T00:54:55.893Z,100843.09
2023-05-09T00:57:23.539Z,100843.53
2023-05-09T00:59:51.310Z,100842.25
2023-05-09T01:02:19.327Z,100836.91
2023-05-09T01:04:47.303Z,100830.44
2023-05-09T01:07:17.985Z,100830.16
2023-05-09T01:10:10.473Z,100824.50
2023-05-09T01:13:04.768Z,100831.44
2023-05-09T01:15:50.423Z,100824.50
2023-05-09T01:18:40.180Z,100826.19
2023-05-09T01:21:22.169Z,100825.78
2023-05-09T01:24:13.232Z,100816.31
2023-05-09T01:26:52.300Z,100817.03
2023-05-09T01:29:25.806Z,100815.19
2023-05-09T01:31:56.737Z,100825.78
2023-05-09T01:34:27.485Z,100819.44
2023-05-09T01:36:59.823Z,100811.13
2023-05-09T01:39:28.799Z,100818.88
2023-05-09T01:42:00.948Z,100814.19
2023-05-09T01:44:35.752Z,100812.34
2023-05-09T01:47:04.515Z,100816.59
2023-05-09T01:49:35.440Z,100814.75
2023-05-09T01:52:10.180Z,100818.59
2023-05-09T01:54:40.554Z,100814.91
2023-05-09T01:57:10.041Z,100810.25
2023-05-09T01:59:41.349Z,100809.97
2023-05-09T02:02:09.262Z,100817.31
2023-05-09T02:04:38.097Z,100821.81
2023-05-09T02:07:06.628Z,100814.75
2023-05-09T02:09:34.262Z,100819.28
2023-05-09T02:12:02.101Z,100815.91
2023-05-09T02:14:31.748Z,100822.22
2023-05-09T02:17:06.485Z,100815.03
2023-05-09T02:19:35.902Z,100815.34
2023-05-09T02:22:05.177Z,100818.88
2023-05-09T02:24:37.287Z,100820.13
2023-05-09T02:27:06.141Z,100816.75
2023-05-09T02:29:42.094Z,100815.91
2023-05-09T02:32:12.603Z,100819.84
2023-05-09T02:34:42.198Z,100827.31
2023-05-09T02:37:10.901Z,100822.41
2023-05-09T02:39:38.820Z,100824.50
2023-05-09T02:42:08.173Z,100819.28
2023-05-09T02:44:36.353Z,100819.44
2023-05-09T02:47:05.294Z,100821.41
2023-05-09T02:49:33.818Z,100820.56
2023-05-09T02:52:03.510Z,100815.19
2023-05-09T02:54:31.119Z,100824.22
2023-05-09T02:56:59.389Z,100823.38
2023-05-09T02:59:27.656Z,100832.25
2023-05-09T03:01:56.202Z,100831.44
2023-05-09T03:04:25.772Z,100829.44
2023-05-09T03:06:53.643Z,100828.59
2023-05-09T03:09:22.030Z,100828.59
2023-05-09T03:11:50.601Z,100832.09
2023-05-09T03:14:18.440Z,100828.75
2023-05-09T03:16:46.009Z,100832.25
2023-05-09T03:19:22.276Z,100821.56
2023-05-09T03:21:49.831Z,100830.28
2023-05-09T03:24:17.348Z,100826.63
2023-05-09T03:26:45.184Z,100822.97
2023-05-09T03:29:12.693Z,100823.78
2023-05-09T03:31:40.382Z,100819.28
2023-05-09T03:34:13.074Z,100821.13
2023-05-09T03:36:44.601Z,100826.91
2023-05-09T03:39:14.200Z,100823.78
2023-05-09T03:41:44.456Z,100827.75
2023-05-09T03:44:12.977Z,100829.84
2023-05-09T03:46:40.741Z,100822.94
2023-05-09T03:49:09.007Z,100831.13
2023-05-09T03:51:38.255Z,100820.69
2023-05-09T03:54:10.266Z,100822.81
2023-05-09T03:56:37.942Z,100824.19
2023-05-09T03:59:05.525Z,100817.44
2023-05-09T04:01:34.481Z,100824.19
2023-05-09T04:04:03.813Z,100827.25
2023-05-09T04:06:35.628Z,100822.31
2023-05-09T04:09:05.454Z,100828.78
2023-05-09T04:11:33.465Z,100824.44
2023-05-09T04:14:01.785Z,100823.44
2023-05-09T04:16:33.553Z,100821.75
2023-05-09T04:19:01.260Z,100819.06
2023-05-09T04:21:29.041Z,100823.44
2023-05-09T04:23:59.850Z,100818.94
2023-05-09T04:26:38.450Z,100826.09
2023-05-09T04:29:09.293Z,100821.19
2023-05-09T04:31:37.429Z,100823.03
2023-05-09T04:34:07.140Z,100813.00
2023-05-09T04:36:36.334Z,100814.00
2023-05-09T04:39:05.319Z,100817.50
2023-05-09T04:41:35.071Z,100822.03
2023-05-09T04:44:03.379Z,100814.28
2023-05-09T04:46:31.029Z,100808.63
2023-05-09T04:48:58.772Z,100811.56
2023-05-09T04:51:27.015Z,100806.94
2023-05-09T04:53:54.667Z,100807.34
2023-05-09T04:56:27.517Z,100809.75
2023-05-09T04:58:55.347Z,100805.81
2023-05-09T05:01:23.041Z,100808.94
2023-05-09T05:03:51.332Z,100811.06
2023-05-09T05:06:18.855Z,100812.75
2023-05-09T05:08:46.452Z,100811.50
2023-05-09T05:11:15.308Z,100810.53
2023-05-09T05:13:43.014Z,100817.28
2023-05-09T05:16:11.665Z,100813.06
2023-05-09T05:18:39.308Z,100808.00
2023-05-09T05:21:07.261Z,100811.38
2023-05-09T05:23:35.108Z,100803.34
2023-05-09T05:26:03.912Z,100810.41
2023-05-09T05:28:33.317Z,100809.56
2023-05-09T05:31:01.376Z,100809.44
2023-05-09T05:33:28.921Z,100809.13
2023-05-09T05:35:57.099Z,100809.56
2023-05-09T05:38:24.750Z,100805.47
2023-05-09T05:40:56.122Z,100809.00
2023-05-09T05:43:25.613Z,100809.56
2023-05-09T05:45:54.059Z,100808.28
2023-05-09T05:48:23.977Z,100815.06
2023-05-09T05:50:53.254Z,100804.63
2023-05-09T05:53:24.815Z,100809.13
2023-05-09T05:55:53.058Z,100818.44
2023-05-09T05:58:21.311Z,100819.00
2023-05-09T06:00:49.068Z,100819.41
2023-05-09T06:03:17.584Z,100816.16
2023-05-09T06:05:52.506Z,100812.34
2023-05-09T06:08:20.093Z,100808.53
2023-05-09T06:10:47.672Z,100803.72
2023-05-09T06:13:15.641Z,100805.44
2023-05-09T06:15:48.311Z,100802.03
2023-05-09T06:18:16.434Z,100802.38
2023-05-09T06:20:43.911Z,100809.94
2023-05-09T06:23:11.557Z,100800.53
2023-05-09T06:25:39.066Z,100805.19
2023-05-09T06:28:07.605Z,100812.59
2023-05-09T06:30:35.572Z,100815.28
2023-05-09T06:33:03.227Z,100807.56
2023-05-09T06:35:30.797Z,100807.03
2023-05-09T06:37:58.392Z,100809.69
2023-05-09T06:40:26.174Z,100800.59
2023-05-09T06:42:53.824Z,100814.00
2023-05-09T06:45:21.412Z,100816.56
2023-05-09T06:47:49.655Z,100808.75
2023-05-09T06:50:17.366Z,100815.47
2023-05-09T06:52:45.076Z,100805.13
2023-05-09T06:55:12.883Z,100806.09
2023-05-09T06:57:40.906Z,100807.16
2023-05-09T07:00:09.575Z,100800.34
2023-05-09T07:02:41.814Z,100801.13
2023-05-09T07:05:10.816Z,100801.31
2023-05-09T07:07:38.614Z,100808.53
2023-05-09T07:10:11.291Z,100803.34
2023-05-09T07:12:40.413Z,100798.19
2023-05-09T07:15:08.832Z,100798.09
2023-05-09T07:17:36.412Z,100804.25
2023-05-09T07:20:04.991Z,100806.72
2023-05-09T07:22:34.091Z,100791.91
2023-05-09T07:25:03.602Z,100800.13
2023-05-09T07:27:31.135Z,100801.38
2023-05-09T07:29:58.744Z,100795.72
2023-05-09T07:32:28.823Z,100791.34
2023-05-09T07:34:56.763Z,100789.22
2023-05-09T07:37:24.452Z,100779.41
2023-05-09T07:39:52.431Z,100776.28
2023-05-09T07:42:20.021Z,100779.03
2023-05-09T07:44:47.704Z,100778.91
2023-05-09T07:47:15.355Z,100779.31
2023-05-09T07:49:43.594Z,100785.09
2023-05-09T07:52:11.416Z,100785.22
2023-05-09T07:54:38.957Z,100785.59
2023-05-09T07:57:06.707Z,100780.81
2023-05-09T07:59:34.269Z,100777.59
2023-05-09T08:02:02.306Z,100776.41
2023-05-09T08:04:30.017Z,100781.81
2023-05-09T08:06:57.929Z,100786.00
2023-05-09T08:09:26.704Z,100780.00
2023-05-09T08:11:54.336Z,100770.88
2023-05-09T08:14:22.038Z,100774.13
2023-05-09T08:16:49.545Z,100768.84
2023-05-09T08:19:17.240Z,100770.59
2023-05-09T08:21:44.796Z,100774.84
2023-05-09T08:24:12.331Z,100779.03
2023-05-09T08:26:39.925Z,100774.69
2023-05-09T08:29:07.481Z,100766.06
2023-05-09T08:31:35.064Z,100763.84
2023-05-09T08:34:02.985Z,100774.41
2023-05-09T08:36:30.764Z,100768.38
2023-05-09T08:38:58.403Z,100768.69
2023-05-09T08:41:29.858Z,100766.56
2023-05-09T08:43:57.607Z,100769.38
2023-05-09T08:46:31.147Z,100772.47
2023-05-09T08:48:59.434Z,100771.84
2023-05-09T08:51:27.713Z,100777.28
2023-05-09T08:53:55.909Z,100777.09
2023-05-09T08:56:24.177Z,100774.69
2023-05-09T08:58:52.379Z,100776.03
2023-05-09T09:01:20.716Z,100774.72
2023-05-09T09:03:54.502Z,100779.91
2023-05-09T09:06:23.465Z,100778.63
2023-05-09T09:08:51.467Z,100777.72
2023-05-09T09:11:20.469Z,100774.41
2023-05-09T09:13:51.663Z,100780.19
2023-05-09T09:16:25.169Z,100782.41
2023-05-09T09:18:58.003Z,100774.38
2023-05-09T09:21:27.435Z,100782.69
2023-05-09T09:23:56.703Z,100782.00
2023-05-09T09:26:25.084Z,100781.38
2023-05-09T09:28:53.036Z,100781.66
2023-05-09T09:31:24.849Z,100780.16
2023-05-09T09:33:52.646Z,100772.75
2023-05-09T09:36:30.813Z,100773.97
2023-05-09T09:39:06.438Z,100779.91
2023-05-09T09:41:35.539Z,100776.50
2023-05-09T09:44:10.028Z,100783.25
2023-05-09T09:46:58.345Z,100781.50
2023-05-09T09:49:27.242Z,100773.84
2023-05-09T09:51:56.796Z,100775.88
2023-05-09T09:54:28.596Z,100773.75
2023-05-09T09:56:56.715Z,100767.50
2023-05-09T09:59:26.829Z,100768.47
2023-05-09T10:01:58.602Z,100780.38
2023-05-09T10:04:31.611Z,100773.69
2023-05-09T10:07:01.234Z,100780.84
2023-05-09T10:09:29.118Z,100785.19
2023-05-09T10:11:59.683Z,100789.72
2023-05-09T10:14:27.832Z,100784.69
2023-05-09T10:16:57.715Z,100782.88
2023-05-09T10:19:27.449Z,100785.16
2023-05-09T10:21:57.701Z,100785.59
2023-05-09T10:24:35.311Z,100780.34
2023-05-09T10:27:06.124Z,100780.84
2023-05-09T10:29:44.663Z,100778.72
2023-05-09T10:32:17.744Z,100779.59
2023-05-09T10:34:51.542Z,100774.19
2023-05-09T10:37:21.486Z,100783.47
2023-05-09T10:39:53.625Z,100770.81
2023-05-09T10:42:23.119Z,100774.88
2023-05-09T10:44:53.530Z,100768.84
2023-05-09T10:47:22.018Z,100760.22
2023-05-09T10:49:49.969Z,100757.00
2023-05-09T10:52:18.974Z,100752.00
2023-05-09T10:54:58.738Z,100763.22
2023-05-09T10:57:28.625Z,100758.91
2023-05-09T10:59:57.493Z,100754.25
2023-05-09T11:02:32.860Z,100752.69
2023-05-09T11:05:17.650Z,100760.16
2023-05-09T11:07:46.602Z,100760.09
2023-05-09T11:10:18.239Z,100759.47
2023-05-09T11:13:00.021Z,100751.25
2023-05-09T11:15:28.164Z,100755.50
2023-05-09T11:18:10.593Z,100751.78
2023-05-09T11:20:45.979Z,100751.78
2023-05-09T11:23:17.587Z,100743.09
2023-05-09T11:25:49.723Z,100750.25
2023-05-09T11:28:38.520Z,100745.47
2023-05-09T11:31:16.467Z,100749.31
2023-05-09T11:33:46.773Z,100743.84
2023-05-09T11:36:25.505Z,100745.44
2023-05-09T11:39:25.472Z,100747.31
2023-05-09T11:41:53.761Z,100738.50
2023-05-09T11:44:21.821Z,100752.06
2023-05-09T11:46:49.820Z,100744.22
2023-05-09T11:49:19.471Z,100743.94
2023-05-09T11:51:47.036Z,100737.03
2023-05-09T11:54:15.210Z,100743.00
2023-05-09T11:56:43.163Z,100741.34
2023-05-09T11:59:13.265Z,100740.13
2023-05-09T12:01:42.341Z,100738.66
2023-05-09T12:04:10.039Z,100735.63
2023-05-09T12:06:37.817Z,100732.16
2023-05-09T12:09:05.537Z,100742.56
2023-05-09T12:11:35.021Z,100740.53
2023-05-09T12:14:02.707Z,100740.94
2023-05-09T12:16:30.930Z,100741.25
2023-05-09T12:18:58.457Z,100743.75
2023-05-09T12:21:25.961Z,100747.72
2023-05-09T12:23:56.419Z,100736.47
2023-05-09T12:26:24.398Z,100737.91
2023-05-09T12:28:52.128Z,100742.78
2023-05-09T12:31:20.709Z,100746.56
2023-05-09T12:33:48.516Z,100750.75
2023-05-09T12:36:16.534Z,100755.34
2023-05-09T12:38:56.691Z,100755.16
2023-05-09T12:41:37.091Z,100760.75
2023-05-09T12:44:09.932Z,100746.06
2023-05-09T12:46:38.147Z,100748.00
2023-05-09T12:49:05.923Z,100743.66
2023-05-09T12:51:33.651Z,100737.84
2023-05-09T12:54:04.874Z,100740.91
2023-05-09T12:56:35.207Z,100741.38
2023-05-09T12:59:02.811Z,100735.41
2023-05-09T13:01:30.560Z,100735.06
2023-05-09T13:04:06.600Z,100746.34
2023-05-09T13:06:36.343Z,100739.88
2023-05-09T13:09:06.447Z,100732.03
2023-05-09T13:11:35.402Z,100734.38
2023-05-09T13:14:04.238Z,100731.25
2023-05-09T13:16:31.985Z,100735.22
2023-05-09T13:19:01.557Z,100733.44
2023-05-09T13:21:29.124Z,100732.59
2023-05-09T13:23:56.694Z,100732.59
2023-05-09T13:26:24.591Z,100739.25
2023-05-09T13:28:52.134Z,100725.59
2023-05-09T13:31:20.182Z,100726.59
2023-05-09T13:33:49.341Z,100716.84
2023-05-09T13:36:19.678Z,100722.13
2023-05-09T13:38:47.790Z,100720.41
2023-05-09T13:41:24.156Z,100722.03
2023-05-09T13:43:51.769Z,100726.44
2023-05-09T13:46:19.385Z,100718.25
2023-05-09T13:48:47.908Z,100717.66
2023-05-09T13:51:15.456Z,100724.22
2023-05-09T13:53:43.152Z,100722.03
2023-05-09T13:56:10.830Z,100721.28
2023-05-09T13:58:38.450Z,100723.44
2023-05-09T14:01:06.732Z,100723.50
2023-05-09T14:03:34.393Z,100723.53
2023-05-09T14:06:01.959Z,100732.06
2023-05-09T14:08:29.772Z,100720.78
2023-05-09T14:10:57.397Z,100726.03
2023-05-09T14:13:25.377Z,100713.16
2023-05-09T14:15:53.107Z,100717.47
2023-05-09T14:18:21.250Z,100719.81
2023-05-09T14:20:49.019Z,100715.41
2023-05-09T14:23:16.777Z,100720.00
2023-05-09T14:25:44.948Z,100723.38
2023-05-09T14:28:12.946Z,100719.84
2023-05-09T14:30:41.193Z,100716.25
2023-05-09T14:33:08.792Z,100714.03
2023-05-09T14:35:36.986Z,100716.22
2023-05-09T14:38:05.964Z,100719.03
2023-05-09T14:40:33.704Z,100703.63
2023-05-09T14:43:04.313Z,100701.56
2023-05-09T14:45:33.145Z,100707.66
2023-05-09T14:48:01.578Z,100706.91
2023-05-09T14:50:29.698Z,100701.84
2023-05-09T14:52:57.673Z,100699.72
2023-05-09T14:55:26.813Z,100700.50
2023-05-09T14:57:54.915Z,100696.56
2023-05-09T15:00:23.320Z,100696.91
2023-05-09T15:02:51.148Z,100694.47
2023-05-09T15:05:18.720Z,100691.09
2023-05-09T15:07:46.709Z,100693.16
2023-05-09T15:10:14.845Z,100693.31
2023-05-09T15:12:43.369Z,100683.63
2023-05-09T15:15:14.447Z,100694.22
2023-05-09T15:17:43.873Z,100696.66
2023-05-09T15:20:12.487Z,100690.13
2023-05-09T15:22:40.067Z,100687.03
2023-05-09T15:25:08.122Z,100681.22
2023-05-09T15:27:36.368Z,100686.47
2023-05-09T15:30:04.913Z,100684.31
2023-05-09T15:32:32.839Z,100680.44
2023-05-09T15:35:00.450Z,100684.28
2023-05-09T15:37:28.121Z,100681.88
2023-05-09T15:39:55.656Z,100681.38
2023-05-09T15:42:23.233Z,100673.50
2023-05-09T15:44:50.841Z,100679.44
2023-05-09T15:47:18.596Z,100669.34
2023-05-09T15:49:46.555Z,100676.97
2023-05-09T15:52:14.216Z,100676.16
2023-05-09T15:54:41.832Z,100668.34
2023-05-09T15:57:10.805Z,100664.63
2023-05-09T15:59:38.419Z,100660.53
2023-05-09T16:02:06.905Z,100670.63
2023-05-09T16:04:34.506Z,100670.16
2023-05-09T16:07:02.553Z,100668.66
2023-05-09T16:09:30.181Z,100673.25
2023-05-09T16:11:57.776Z,100671.94
2023-05-09T16:14:25.368Z,100666.72
2023-05-09T16:16:53.916Z,100659.50
2023-05-09T16:19:21.920Z,100664.09
2023-05-09T16:21:50.035Z,100657.22
2023-05-09T16:24:17.645Z,100658.16
2023-05-09T16:26:45.183Z,100663.94
2023-05-09T16:29:13.726Z,100661.59
2023-05-09T16:31:41.400Z,100664.97
2023-05-09T16:34:09.174Z,100665.91
2023-05-09T16:36:38.363Z,100659.28
2023-05-09T16:39:05.908Z,100664.97
2023-05-09T16:41:33.476Z,100653.56
2023-05-09T16:44:01.171Z,100665.38
2023-05-09T16:46:28.773Z,100675.00
2023-05-09T16:48:56.333Z,100667.81
2023-05-09T16:51:23.955Z,100671.06
2023-05-09T16:53:51.623Z,100668.06
2023-05-09T16:56:19.302Z,100672.63
2023-05-09T16:58:49.322Z,100671.78
2023-05-09T17:01:17.016Z,100661.53
2023-05-09T17:03:44.590Z,100669.63
2023-05-09T17:06:12.181Z,100676.53
2023-05-09T17:08:39.799Z,100680.06
2023-05-09T17:11:09.136Z,100683.13
2023-05-09T17:13:36.977Z,100678.09
2023-05-09T17:16:04.805Z,100679.66
2023-05-09T17:18:37.588Z,100683.47
2023-05-09T17:21:06.757Z,100683.84
2023-05-09T17:23:34.277Z,100689.13
2023-05-09T17:26:01.864Z,100686.13
2023-05-09T17:28:29.790Z,100690.03
2023-05-09T17:30:59.117Z,100689.31
2023-05-09T17:33:27.244Z,100685.03
2023-05-09T17:35:54.996Z,100683.34
2023-05-09T17:38:22.560Z,100677.53
2023-05-09T17:40:50.242Z,100681.28
2023-05-09T17:43:17.912Z,100671.03
2023-05-09T17:45:46.460Z,100672.75
2023-05-09T17:48:14.608Z,100663.16
2023-05-09T17:50:43.707Z,100666.13
2023-05-09T17:53:11.303Z,100665.16
2023-05-09T17:55:39.298Z,100663.78
2023-05-09T17:58:08.391Z,100670.81
2023-05-09T18:00:36.651Z,100666.28
2023-05-09T18:03:04.787Z,100664.63
2023-05-09T18:05:32.619Z,100670.03
2023-05-09T18:08:01.348Z,100657.56
2023-05-09T18:10:29.123Z,100664.63
2023-05-09T18:12:56.837Z,100660.75
2023-05-09T18:15:24.777Z,100662.09
2023-05-09T18:17:53.877Z,100658.28
2023-05-09T18:20:22.171Z,100657.13
2023-05-09T18:22:49.944Z,100644.81
2023-05-09T18:25:17.811Z,100646.00
2023-05-09T18:27:45.356Z,100637.91
2023-05-09T18:30:13.553Z,100646.88
2023-05-09T18:32:41.999Z,100645.00
2023-05-09T18:35:10.475Z,100646.88
2023-05-09T18:37:38.065Z,100650.91
2023-05-09T18:40:06.428Z,100646.88
2023-05-09T18:42:34.138Z,100652.50
2023-05-09T18:45:04.437Z,100657.41
2023-05-09T18:47:32.120Z,100655.09
2023-05-09T18:50:02.332Z,100664.41
2023-05-09T18:52:32.041Z,100653.16
2023-05-09T18:54:59.715Z,100655.84
2023-05-09T18:57:27.953Z,100662.41
2023-05-09T18:59:56.064Z,100656.38
2023-05-09T19:02:24.022Z,100661.09
2023-05-09T19:04:51.735Z,100662.44
2023-05-09T19:07:19.316Z,100669.16
2023-05-09T19:09:46.983Z,100667.50
2023-05-09T19:12:16.432Z,100672.16
2023-05-09T19:14:44.098Z,100669.81
2023-05-09T19:17:11.663Z,100684.25
2023-05-09T19:19:39.431Z,100680.88
2023-05-09T19:22:07.068Z,100682.81
2023-05-09T19:24:34.644Z,100677.25
2023-05-09T19:27:02.188Z,100684.44
2023-05-09T19:29:29.958Z,100684.25
2023-05-09T19:31:57.504Z,100692.31
2023-05-09T19:34:25.768Z,100686.72
2023-05-09T19:36:53.384Z,100687.34
2023-05-09T19:39:21.242Z,100687.31
2023-05-09T19:41:48.826Z,100692.66
2023-05-09T19:44:16.425Z,100693.75
2023-05-09T19:46:44.095Z,100686.66
2023-05-09T19:49:12.569Z,100691.94
2023-05-09T19:51:40.580Z,100702.78
2023-05-09T19:54:08.262Z,100704.31
2023-05-09T19:56:35.752Z,100702.25
2023-05-09T19:59:03.317Z,100710.06
2023-05-09T20:01:31.155Z,100706.63
2023-05-09T20:03:58.901Z,100708.09
2023-05-09T20:06:26.763Z,100714.09
2023-05-09T20:08:54.417Z,100708.31
2023-05-09T20:11:22.426Z,100711.78
2023-05-09T20:13:50.026Z,100718.72
2023-05-09T20:16:17.832Z,100718.34
2023-05-09T20:18:45.630Z,100724.31
2023-05-09T20:21:13.446Z,100726.75
2023-05-09T20:23:41.134Z,100725.50
2023-05-09T20:26:08.659Z,100727.81
2023-05-09T20:28:36.504Z,100727.41
2023-05-09T20:31:04.608Z,100730.25
2023-05-09T20:33:32.225Z,100732.53
2023-05-09T20:35:59.956Z,100733.66
2023-05-09T20:38:27.664Z,100739.03
2023-05-09T20:40:55.297Z,100743.84
2023-05-09T20:43:22.838Z,100737.94
2023-05-09T20:45:52.027Z,100743.47
2023-05-09T20:48:23.520Z,100733.31
2023-05-09T20:50:51.324Z,100737.59
2023-05-09T20:53:18.900Z,100737.59
2023-05-09T20:55:47.362Z,100734.47
2023-05-09T20:58:16.643Z,100733.47
2023-05-09T21:00:47.211Z,100734.31
2023-05-09T21:03:14.981Z,100729.38
2023-05-09T21:05:42.708Z,100731.34
2023-05-09T21:08:10.437Z,100723.72
2023-05-09T21:10:37.949Z,100726.53
2023-05-09T21:13:06.273Z,100720.03
2023-05-09T21:15:33.859Z,100714.94
2023-05-09T21:18:01.466Z,100722.25
2023-05-09T21:20:29.018Z,100728.53
2023-05-09T21:22:56.565Z,100727.13
2023-05-09T21:25:24.225Z,100714.72
2023-05-09T21:27:51.800Z,100722.59
2023-05-09T21:30:19.412Z,100729.09
2023-05-09T21:32:46.992Z,100724.19
2023-05-09T21:35:15.466Z,100720.97
2023-05-09T21:37:43.012Z,100725.63
2023-05-09T21:40:11.112Z,100725.31
2023-05-09T21:42:40.782Z,100716.97
2023-05-09T21:45:08.589Z,100725.03
2023-05-09T21:47:36.953Z,100719.81
2023-05-09T21:50:05.203Z,100721.50
2023-05-09T21:52:32.799Z,100723.03
2023-05-09T21:55:00.356Z,100722.88
2023-05-09T21:57:27.890Z,100723.03
2023-05-09T21:59:56.269Z,100720.38
2023-05-09T22:02:23.933Z,100719.78
2023-05-09T22:04:51.500Z,100718.19
2023-05-09T22:07:19.049Z,100708.81
2023-05-09T22:09:46.524Z,100710.38
2023-05-09T22:12:14.056Z,100709.53
2023-05-09T22:14:52.603Z,100710.06
2023-05-09T22:17:24.566Z,100709.78
2023-05-09T22:19:52.372Z,100704.22
2023-05-09T22:22:20.015Z,100709.31
2023-05-09T22:24:47.493Z,100711.69
2023-05-09T22:27:15.111Z,100709.53
2023-05-09T22:29:42.609Z,100712.94
2023-05-09T22:32:10.325Z,100716.44
2023-05-09T22:34:37.958Z,100719.00
2023-05-09T22:37:05.603Z,100717.16
2023-05-09T22:39:33.138Z,100718.13
2023-05-09T22:42:02.523Z,100716.31
2023-05-09T22:44:30.118Z,100718.72
2023-05-09T22:46:57.676Z,100721.56
2023-05-09T22:49:25.211Z,100717.34
2023-05-09T22:51:52.748Z,100726.84
2023-05-09T22:54:23.031Z,100720.56
2023-05-09T22:56:50.631Z,100717.09
2023-05-09T22:59:18.104Z,100719.13
2023-05-09T23:01:46.508Z,100718.16
2023-05-09T23:04:14.099Z,100719.91
2023-05-09T23:06:41.703Z,100721.03
2023-05-09T23:09:10.672Z,100713.88
2023-05-09T23:11:38.327Z,100723.63
2023-05-09T23:14:06.492Z,100717.16
2023-05-09T23:16:34.172Z,100717.75
2023-05-09T23:19:01.842Z,100709.31
2023-05-09T23:21:29.421Z,100708.78
2023-05-09T23:23:57.053Z,100712.97
2023-05-09T23:26:24.618Z,100706.41
2023-05-09T23:28:52.182Z,100702.28
2023-05-09T23:31:19.856Z,100705.56
2023-05-09T23:33:47.460Z,100696.09
2023-05-09T23:36:15.467Z,100701.75
2023-05-09T23:38:43.023Z,100694.00
2023-05-09T23:41:10.607Z,100694.44
2023-05-09T23:43:38.272Z,100685.13
2023-05-09T23:46:05.974Z,100692.47
2023-05-09T23:48:33.664Z,100692.78
2023-05-09T23:51:01.328Z,100695.72
2023-05-09T23:53:29.008Z,100685.31
2023-05-09T23:55:56.573Z,100675.59
2023-05-09T23:58:24.844Z,100684.03
